Grande Italia — IBTF — position and weather

sailwx.info

Track history (hours):
 
Tides and Currents Weather Stations Pressure Air Temp Water Temp Dewpoint Dewpoint Depression Visibility Wind Speed Wind Dir Waves Ship Positions

Grande Italia

Last reported at 2014-Aug-20 02:11 UTC. Time now 2014-Aug-20 14:41 UTC.
Position N 39°01' E 009°53'.

Length 177 m; draft 7.8 m.

Type: Cargo ship. MMSI: 247039300.

Date/timePositionNaut miles runAvg speedWind from/ knotsBaromVisibWave heightAir tempDewpointWater temp
2014-Aug-20 02:11N 39°01' E 009°53'2314.2
2014-Aug-20 00:33N 38°53' E 009°25'1414.0
2014-Aug-19 23:33N 38°47' E 009°09'1414.3
2014-Aug-19 22:33N 38°42' E 008°52'1514.6
2014-Aug-19 21:33N 38°36' E 008°34'1514.5
2014-Aug-19 20:32N 38°32' E 008°16'1513.7
2014-Aug-19 19:28N 38°29' E 007°58'8814.1
2014-Aug-19 13:13N 38°06' E 006°10'914.3
2014-Aug-19 12:33N 38°04' E 005°58'14914.7
2014-Aug-19 02:22N 37°26' E 002°56'1414.8
2014-Aug-19 01:24N 37°23' E 002°38'1315.2
2014-Aug-19 00:33N 37°19' E 002°23'4514.9
2014-Aug-18 21:32N 37°08' E 001°28'5814.5
2014-Aug-18 17:32N 36°53' E 000°17'1414.5
2014-Aug-18 16:33N 36°49' E 000°00'1514.7
2014-Aug-18 15:31N 36°46' W 000°18'1514.9
2014-Aug-18 14:33N 36°42' W 000°35'1614.7
2014-Aug-18 13:28N 36°38' W 000°55'1314.4
2014-Aug-18 12:33N 36°35' W 001°10'1414.3
2014-Aug-18 11:33N 36°31' W 001°28'3013.9
2014-Aug-18 09:23N 36°24' W 002°04'1213.9
2014-Aug-18 08:33N 36°21' W 002°18'1413.5
2014-Aug-18 07:33N 36°19' W 002°35'1413.8
2014-Aug-18 06:32N 36°17' W 002°52'28413.4
2014-Aug-17 09:23N 36°27' W 008°44'2814.5
2014-Aug-17 07:27N 36°35' W 009°18'  
2014-Aug-14 13:26N 50°16' W 001°24'2611.6
2014-Aug-14 11:13N 50°22' W 000°45'1010.7
2014-Aug-14 10:15N 50°25' W 000°30'1011.8
2014-Aug-14 09:26N 50°28' W 000°15'1413.7
2014-Aug-14 08:25N 50°32' E 000°06'1315.4
2014-Aug-14 07:33N 50°35' E 000°26'1615.8
2014-Aug-14 06:33N 50°42' E 000°48'1515.3
2014-Aug-14 05:34N 50°52' E 001°07'1413.8
2014-Aug-14 04:33N 51°02' E 001°22'1211.8
2014-Aug-14 03:33N 51°08' E 001°37'1111.0
2014-Aug-14 02:34N 51°16' E 001°50'1111.2
2014-Aug-14 01:33N 51°25' E 002°01'1312.8
2014-Aug-14 00:34N 51°21' E 002°21'1414.3
2014-Aug-13 23:33N 51°23' E 002°44'1514.7
2014-Aug-13 22:30N 51°24' E 003°09'1617.0
2014-Aug-13 21:33N 51°25' E 003°34'1010.0
2014-Aug-13 20:34N 51°21' E 003°49'1111.3
2014-Aug-13 19:33N 51°22' E 004°07'10 9.6
2014-Aug-13 18:33N 51°17' E 004°19'2 1.7
2014-Aug-13 17:34N 51°16' E 004°17'1 0.6
2014-Aug-13 16:33N 51°16' E 004°16'2 1.8
2014-Aug-13 15:28N 51°16' E 004°13'0 0.0
2014-Aug-13 14:31N 51°16' E 004°13'0 0.0
2014-Aug-13 13:28N 51°16' E 004°13'0 0.0
2014-Aug-13 12:31N 51°16' E 004°13'0 0.0
2014-Aug-13 11:31N 51°16' E 004°13'0 0.0
2014-Aug-13 10:31N 51°16' E 004°13'0 0.0
2014-Aug-13 09:31N 51°16' E 004°13'0 0.0
2014-Aug-13 08:25N 51°16' E 004°13'0 0.0
2014-Aug-13 07:31N 51°16' E 004°13'0 0.0
2014-Aug-13 06:31N 51°16' E 004°13'0 0.0
2014-Aug-13 05:31N 51°16' E 004°13'0 0.0
2014-Aug-13 04:28N 51°16' E 004°13'0 0.0
2014-Aug-13 03:28N 51°16' E 004°13'0 0.0
2014-Aug-13 02:31N 51°16' E 004°13'0 0.0
2014-Aug-13 01:31N 51°16' E 004°13'0 0.0
2014-Aug-13 00:25N 51°16' E 004°13'0 0.0
2014-Aug-12 23:31N 51°16' E 004°13'0 0.0
2014-Aug-12 22:31N 51°16' E 004°13'0 0.0
2014-Aug-12 21:28N 51°16' E 004°13'0 0.0
2014-Aug-12 20:28N 51°16' E 004°13'0 0.0
2014-Aug-12 19:31N 51°16' E 004°13'0 0.0
2014-Aug-12 18:31N 51°16' E 004°13'0 0.0
2014-Aug-12 17:31N 51°16' E 004°13'0 0.0
2014-Aug-12 16:31N 51°16' E 004°13'0 0.0
2014-Aug-12 15:31N 51°16' E 004°13'2 2.6
2014-Aug-12 14:34N 51°16' E 004°17'1 0.6
2014-Aug-12 13:34N 51°16' E 004°18'7 7.5
2014-Aug-12 12:33N 51°23' E 004°13'10 9.6
2014-Aug-12 11:34N 51°25' E 003°58'10 9.8
2014-Aug-12 10:34N 51°25' E 003°42'1110.9
2014-Aug-12 09:33N 51°24' E 003°25'1413.9
2014-Aug-12 08:34N 51°24' E 003°02'1211.9
2014-Aug-12 07:33N 51°35' E 003°10'1211.2
2014-Aug-12 06:31N 51°47' E 003°13'1111.3
2014-Aug-12 05:30N 51°58' E 003°19'4112.1
2014-Aug-12 02:07N 52°38' E 003°32'712.5
2014-Aug-12 01:33N 52°43' E 003°39'1413.6
2014-Aug-12 00:33N 52°54' E 003°54'1414.3
2014-Aug-11 23:33N 53°04' E 004°11'1414.1
2014-Aug-11 22:33N 53°14' E 004°27'1413.5
2014-Aug-11 21:29N 53°28' E 004°35'1212.5
2014-Aug-11 20:33N 53°32' E 004°53'1212.4
2014-Aug-11 19:33N 53°36' E 005°13'1212.1
2014-Aug-11 18:33N 53°40' E 005°32'1212.3
2014-Aug-11 17:33N 53°44' E 005°52'10 9.7
2014-Aug-11 16:33N 53°41' E 006°08'1412.1
2014-Aug-11 15:26N 53°37' E 006°29'1315.1
2014-Aug-11 14:33N 53°30' E 006°48'1413.9
2014-Aug-11 13:33N 53°20' E 007°04'3 3.1
2014-Aug-11 12:28N 53°20' E 007°10'0 0.0
2014-Aug-11 11:31N 53°20' E 007°10'0 0.0
2014-Aug-11 10:31N 53°20' E 007°10'0 0.0
2014-Aug-11 09:31N 53°20' E 007°10'0 0.0
2014-Aug-11 08:31N 53°20' E 007°10'0 0.0
2014-Aug-11 07:31N 53°20' E 007°10'0 0.0
2014-Aug-11 06:16N 53°20' E 007°10'0 0.0
2014-Aug-11 05:24N 53°20' E 007°10'0 0.0
2014-Aug-11 04:31N 53°20' E 007°10'0 0.0
2014-Aug-11 03:28N 53°20' E 007°10'0 0.0
2014-Aug-11 02:31N 53°20' E 007°10'0 0.0
2014-Aug-11 01:33N 53°20' E 007°10'0 0.0
2014-Aug-11 00:31N 53°20' E 007°10'0 0.0
2014-Aug-10 23:31N 53°20' E 007°10'0 0.0
2014-Aug-10 22:33N 53°20' E 007°10'0 0.0
2014-Aug-10 21:31N 53°20' E 007°10'0 0.0
2014-Aug-10 20:28N 53°20' E 007°10'0 0.0
2014-Aug-10 19:33N 53°20' E 007°10'0 0.0
2014-Aug-10 18:33N 53°20' E 007°10'0 0.0
2014-Aug-10 17:31N 53°20' E 007°10'0 0.0
2014-Aug-10 16:31N 53°20' E 007°10'0 0.0
2014-Aug-10 15:28N 53°20' E 007°10'0 0.0
2014-Aug-10 14:31N 53°20' E 007°10'0 0.0
2014-Aug-10 13:31N 53°20' E 007°10'0 0.0
2014-Aug-10 12:31N 53°20' E 007°10'0 0.0
2014-Aug-10 11:32N 53°20' E 007°10'4 4.3
2014-Aug-10 10:33N 53°19' E 007°03'8 8.1
2014-Aug-10 09:34N 53°26' E 006°55'9 8.6
2014-Aug-10 08:33N 53°32' E 006°44'1110.6
2014-Aug-10 07:33N 53°37' E 006°29'10 9.9
2014-Aug-10 06:33N 53°38' E 006°12'0 0.3
2014-Aug-10 05:34N 53°38' E 006°12'0 0.2
2014-Aug-10 04:33N 53°39' E 006°12'1 0.5
2014-Aug-10 03:33N 53°39' E 006°11'4 4.4
2014-Aug-10 02:33N 53°40' E 006°04'  
Track history (hours):
 
Tides and Currents Weather Stations Pressure Air Temp Water Temp Dewpoint Dewpoint Depression Visibility Wind Speed Wind Dir Waves Ship Positions

Grande Italia

Last reported at 2014-Aug-20 02:11 UTC. Time now 2014-Aug-20 14:41 UTC.
Position N 39°01' E 009°53'.

Length 177 m; draft 7.8 m.

Type: Cargo ship. MMSI: 247039300.

Date/timePositionNaut miles runAvg speedWind from/ knotsBaromVisibWave heightAir tempDewpointWater temp
2014-Aug-20 02:11N 39°01' E 009°53'2314.2
2014-Aug-20 00:33N 38°53' E 009°25'1414.0
2014-Aug-19 23:33N 38°47' E 009°09'1414.3
2014-Aug-19 22:33N 38°42' E 008°52'1514.6
2014-Aug-19 21:33N 38°36' E 008°34'1514.5
2014-Aug-19 20:32N 38°32' E 008°16'1513.7
2014-Aug-19 19:28N 38°29' E 007°58'8814.1
2014-Aug-19 13:13N 38°06' E 006°10'914.3
2014-Aug-19 12:33N 38°04' E 005°58'14914.7
2014-Aug-19 02:22N 37°26' E 002°56'1414.8
2014-Aug-19 01:24N 37°23' E 002°38'1315.2
2014-Aug-19 00:33N 37°19' E 002°23'4514.9
2014-Aug-18 21:32N 37°08' E 001°28'5814.5
2014-Aug-18 17:32N 36°53' E 000°17'1414.5
2014-Aug-18 16:33N 36°49' E 000°00'1514.7
2014-Aug-18 15:31N 36°46' W 000°18'1514.9
2014-Aug-18 14:33N 36°42' W 000°35'1614.7
2014-Aug-18 13:28N 36°38' W 000°55'1314.4
2014-Aug-18 12:33N 36°35' W 001°10'1414.3
2014-Aug-18 11:33N 36°31' W 001°28'3013.9
2014-Aug-18 09:23N 36°24' W 002°04'1213.9
2014-Aug-18 08:33N 36°21' W 002°18'1413.5
2014-Aug-18 07:33N 36°19' W 002°35'1413.8
2014-Aug-18 06:32N 36°17' W 002°52'28413.4
2014-Aug-17 09:23N 36°27' W 008°44'2814.5
2014-Aug-17 07:27N 36°35' W 009°18'  
2014-Aug-14 13:26N 50°16' W 001°24'2611.6
2014-Aug-14 11:13N 50°22' W 000°45'1010.7
2014-Aug-14 10:15N 50°25' W 000°30'1011.8
2014-Aug-14 09:26N 50°28' W 000°15'1413.7
2014-Aug-14 08:25N 50°32' E 000°06'1315.4
2014-Aug-14 07:33N 50°35' E 000°26'1615.8
2014-Aug-14 06:33N 50°42' E 000°48'1515.3
2014-Aug-14 05:34N 50°52' E 001°07'1413.8
2014-Aug-14 04:33N 51°02' E 001°22'1211.8
2014-Aug-14 03:33N 51°08' E 001°37'1111.0
2014-Aug-14 02:34N 51°16' E 001°50'1111.2
2014-Aug-14 01:33N 51°25' E 002°01'1312.8
2014-Aug-14 00:34N 51°21' E 002°21'1414.3
2014-Aug-13 23:33N 51°23' E 002°44'1514.7
2014-Aug-13 22:30N 51°24' E 003°09'1617.0
2014-Aug-13 21:33N 51°25' E 003°34'1010.0
2014-Aug-13 20:34N 51°21' E 003°49'1111.3
2014-Aug-13 19:33N 51°22' E 004°07'10 9.6
2014-Aug-13 18:33N 51°17' E 004°19'2 1.7
2014-Aug-13 17:34N 51°16' E 004°17'1 0.6
2014-Aug-13 16:33N 51°16' E 004°16'2 1.8
2014-Aug-13 15:28N 51°16' E 004°13'0 0.0
2014-Aug-13 14:31N 51°16' E 004°13'0 0.0
2014-Aug-13 13:28N 51°16' E 004°13'0 0.0
2014-Aug-13 12:31N 51°16' E 004°13'0 0.0
2014-Aug-13 11:31N 51°16' E 004°13'0 0.0
2014-Aug-13 10:31N 51°16' E 004°13'0 0.0
2014-Aug-13 09:31N 51°16' E 004°13'0 0.0
2014-Aug-13 08:25N 51°16' E 004°13'0 0.0
2014-Aug-13 07:31N 51°16' E 004°13'0 0.0
2014-Aug-13 06:31N 51°16' E 004°13'0 0.0
2014-Aug-13 05:31N 51°16' E 004°13'0 0.0
2014-Aug-13 04:28N 51°16' E 004°13'0 0.0
2014-Aug-13 03:28N 51°16' E 004°13'0 0.0
2014-Aug-13 02:31N 51°16' E 004°13'0 0.0
2014-Aug-13 01:31N 51°16' E 004°13'0 0.0
2014-Aug-13 00:25N 51°16' E 004°13'0 0.0
2014-Aug-12 23:31N 51°16' E 004°13'0 0.0
2014-Aug-12 22:31N 51°16' E 004°13'0 0.0
2014-Aug-12 21:28N 51°16' E 004°13'0 0.0
2014-Aug-12 20:28N 51°16' E 004°13'0 0.0
2014-Aug-12 19:31N 51°16' E 004°13'0 0.0
2014-Aug-12 18:31N 51°16' E 004°13'0 0.0
2014-Aug-12 17:31N 51°16' E 004°13'0 0.0
2014-Aug-12 16:31N 51°16' E 004°13'0 0.0
2014-Aug-12 15:31N 51°16' E 004°13'2 2.6
2014-Aug-12 14:34N 51°16' E 004°17'1 0.6
2014-Aug-12 13:34N 51°16' E 004°18'7 7.5
2014-Aug-12 12:33N 51°23' E 004°13'10 9.6
2014-Aug-12 11:34N 51°25' E 003°58'10 9.8
2014-Aug-12 10:34N 51°25' E 003°42'1110.9
2014-Aug-12 09:33N 51°24' E 003°25'1413.9
2014-Aug-12 08:34N 51°24' E 003°02'1211.9
2014-Aug-12 07:33N 51°35' E 003°10'1211.2
2014-Aug-12 06:31N 51°47' E 003°13'1111.3
2014-Aug-12 05:30N 51°58' E 003°19'4112.1
2014-Aug-12 02:07N 52°38' E 003°32'712.5
2014-Aug-12 01:33N 52°43' E 003°39'1413.6
2014-Aug-12 00:33N 52°54' E 003°54'1414.3
2014-Aug-11 23:33N 53°04' E 004°11'1414.1
2014-Aug-11 22:33N 53°14' E 004°27'1413.5
2014-Aug-11 21:29N 53°28' E 004°35'1212.5
2014-Aug-11 20:33N 53°32' E 004°53'1212.4
2014-Aug-11 19:33N 53°36' E 005°13'1212.1
2014-Aug-11 18:33N 53°40' E 005°32'1212.3
2014-Aug-11 17:33N 53°44' E 005°52'10 9.7
2014-Aug-11 16:33N 53°41' E 006°08'1412.1
2014-Aug-11 15:26N 53°37' E 006°29'1315.1
2014-Aug-11 14:33N 53°30' E 006°48'1413.9
2014-Aug-11 13:33N 53°20' E 007°04'3 3.1
2014-Aug-11 12:28N 53°20' E 007°10'0 0.0
2014-Aug-11 11:31N 53°20' E 007°10'0 0.0
2014-Aug-11 10:31N 53°20' E 007°10'0 0.0
2014-Aug-11 09:31N 53°20' E 007°10'0 0.0
2014-Aug-11 08:31N 53°20' E 007°10'0 0.0
2014-Aug-11 07:31N 53°20' E 007°10'0 0.0
2014-Aug-11 06:16N 53°20' E 007°10'0 0.0
2014-Aug-11 05:24N 53°20' E 007°10'0 0.0
2014-Aug-11 04:31N 53°20' E 007°10'0 0.0
2014-Aug-11 03:28N 53°20' E 007°10'0 0.0
2014-Aug-11 02:31N 53°20' E 007°10'0 0.0
2014-Aug-11 01:33N 53°20' E 007°10'0 0.0
2014-Aug-11 00:31N 53°20' E 007°10'0 0.0
2014-Aug-10 23:31N 53°20' E 007°10'0 0.0
2014-Aug-10 22:33N 53°20' E 007°10'0 0.0
2014-Aug-10 21:31N 53°20' E 007°10'0 0.0
2014-Aug-10 20:28N 53°20' E 007°10'0 0.0
2014-Aug-10 19:33N 53°20' E 007°10'0 0.0
2014-Aug-10 18:33N 53°20' E 007°10'0 0.0
2014-Aug-10 17:31N 53°20' E 007°10'0 0.0
2014-Aug-10 16:31N 53°20' E 007°10'0 0.0
2014-Aug-10 15:28N 53°20' E 007°10'0 0.0
2014-Aug-10 14:31N 53°20' E 007°10'0 0.0
2014-Aug-10 13:31N 53°20' E 007°10'0 0.0
2014-Aug-10 12:31N 53°20' E 007°10'0 0.0
2014-Aug-10 11:32N 53°20' E 007°10'4 4.3
2014-Aug-10 10:33N 53°19' E 007°03'8 8.1
2014-Aug-10 09:34N 53°26' E 006°55'9 8.6
2014-Aug-10 08:33N 53°32' E 006°44'1110.6
2014-Aug-10 07:33N 53°37' E 006°29'10 9.9
2014-Aug-10 06:33N 53°38' E 006°12'0 0.3
2014-Aug-10 05:34N 53°38' E 006°12'0 0.2
2014-Aug-10 04:33N 53°39' E 006°12'1 0.5
2014-Aug-10 03:33N 53°39' E 006°11'4 4.4
2014-Aug-10 02:33N 53°40' E 006°04'  

Dump ship's entire track history